createdAt,value
2022-11-20T00:00:24.633Z,9.358454
2022-11-20T00:01:23.695Z,9.358509
2022-11-20T00:02:23.661Z,9.358518
2022-11-20T00:03:23.619Z,9.358522
2022-11-20T00:04:23.691Z,9.358505
2022-11-20T00:05:23.596Z,9.358444
2022-11-20T00:06:23.605Z,9.358453
2022-11-20T00:07:23.682Z,9.358482
2022-11-20T00:08:23.575Z,9.358550
2022-11-20T00:09:23.852Z,9.358567
2022-11-20T00:10:23.603Z,9.358581
2022-11-20T00:11:23.537Z,9.358522
2022-11-20T00:12:23.509Z,9.358516
2022-11-20T00:13:23.516Z,9.358545
2022-11-20T00:14:23.510Z,9.358585
2022-11-20T00:15:23.497Z,9.358550
2022-11-20T00:16:23.514Z,9.358512
2022-11-20T00:17:23.478Z,9.358516
2022-11-20T00:18:23.558Z,9.358517
2022-11-20T00:19:23.600Z,9.358473
2022-11-20T00:20:23.455Z,9.358550
2022-11-20T00:21:23.428Z,9.358610
2022-11-20T00:22:23.415Z,9.358576
2022-11-20T00:23:23.450Z,9.358529
2022-11-20T00:24:23.415Z,9.358581
2022-11-20T00:25:23.496Z,9.358560
2022-11-20T00:26:23.380Z,9.358516
2022-11-20T00:27:23.366Z,9.358587
2022-11-20T00:28:23.379Z,9.358556
2022-11-20T00:29:23.599Z,9.358532
2022-11-20T00:30:23.368Z,9.358614
2022-11-20T00:31:23.357Z,9.358627
2022-11-20T00:32:23.320Z,9.358579
2022-11-20T00:33:23.333Z,9.358536
2022-11-20T00:34:23.318Z,9.358557
2022-11-20T00:35:23.334Z,9.358598
2022-11-20T00:36:23.293Z,9.358599
2022-11-20T00:37:23.292Z,9.358597
2022-11-20T00:38:23.284Z,9.358568
2022-11-20T00:39:23.680Z,9.358562
2022-11-20T00:40:23.249Z,9.358554
2022-11-20T00:41:23.247Z,9.358496
2022-11-20T00:42:23.257Z,9.358463
2022-11-20T00:43:23.235Z,9.358611
2022-11-20T00:44:23.194Z,9.358562
2022-11-20T00:45:23.214Z,9.358545
2022-11-20T00:46:23.192Z,9.358545
2022-11-20T00:47:23.179Z,9.358542
2022-11-20T00:48:23.178Z,9.358687
2022-11-20T00:49:23.626Z,9.358630
2022-11-20T00:50:23.167Z,9.358543
2022-11-20T00:51:23.121Z,9.358453
2022-11-20T00:52:23.110Z,9.358409
2022-11-20T00:53:24.129Z,9.358558
2022-11-20T00:54:23.125Z,9.358699
2022-11-20T00:55:23.091Z,9.358575
2022-11-20T00:56:23.077Z,9.358552
2022-11-20T00:57:23.074Z,9.358588
2022-11-20T00:58:23.105Z,9.358595
2022-11-20T00:59:23.467Z,9.358624
2022-11-20T01:00:23.044Z,9.358625
2022-11-20T01:01:23.191Z,9.358595
2022-11-20T01:02:23.021Z,9.358536
2022-11-20T01:03:26.983Z,9.358527
2022-11-20T01:04:24.021Z,9.358542
2022-11-20T01:05:22.990Z,9.358597
2022-11-20T01:06:23.020Z,9.358628
2022-11-20T01:07:22.986Z,9.358613
2022-11-20T01:08:22.946Z,9.358537
2022-11-20T01:09:23.253Z,9.358446
2022-11-20T01:10:22.950Z,9.358451
2022-11-20T01:11:22.923Z,9.358408
2022-11-20T01:12:22.954Z,9.358416
2022-11-20T01:13:25.667Z,9.358428
2022-11-20T01:14:23.910Z,9.358534
2022-11-20T01:15:22.895Z,9.358598
2022-11-20T01:16:22.877Z,9.358542
2022-11-20T01:17:22.991Z,9.358505
2022-11-20T01:18:22.872Z,9.358514
2022-11-20T01:19:23.087Z,9.358557
2022-11-20T01:20:22.865Z,9.358582
2022-11-20T01:21:22.954Z,9.358626
2022-11-20T01:22:22.815Z,9.358635
2022-11-20T01:23:22.821Z,9.358569
2022-11-20T01:24:22.819Z,9.358530
2022-11-20T01:25:22.784Z,9.358502
2022-11-20T01:26:22.821Z,9.358510
2022-11-20T01:27:22.773Z,9.358482
2022-11-20T01:28:22.796Z,9.358511
2022-11-20T01:29:23.122Z,9.358534
2022-11-20T01:30:22.761Z,9.358623
2022-11-20T01:31:22.731Z,9.358596
2022-11-20T01:32:22.756Z,9.358571
2022-11-20T01:33:22.712Z,9.358582
2022-11-20T01:34:22.724Z,9.358549
2022-11-20T01:35:22.713Z,9.358446
2022-11-20T01:36:22.692Z,9.358430
2022-11-20T01:37:22.671Z,9.358471
2022-11-20T01:38:22.662Z,9.358514
2022-11-20T01:39:22.918Z,9.358535
2022-11-20T01:40:22.649Z,9.358564
2022-11-20T01:41:22.641Z,9.358501
2022-11-20T01:42:22.667Z,9.358464
2022-11-20T01:43:22.635Z,9.358513
2022-11-20T01:44:22.656Z,9.358504
2022-11-20T01:45:22.579Z,9.358480
2022-11-20T01:46:22.601Z,9.358498
2022-11-20T01:47:22.618Z,9.358487
2022-11-20T01:48:22.559Z,9.358447
2022-11-20T01:49:22.746Z,9.358439
2022-11-20T01:50:22.547Z,9.358447
2022-11-20T01:51:22.542Z,9.358530
2022-11-20T01:52:22.571Z,9.358517
2022-11-20T01:53:22.531Z,9.358534
2022-11-20T01:54:22.511Z,9.358533
2022-11-20T01:55:22.505Z,9.358518
2022-11-20T01:56:22.506Z,9.358566
2022-11-20T01:57:22.488Z,9.358472
2022-11-20T01:58:22.469Z,9.358440
2022-11-20T01:59:22.756Z,9.358511
2022-11-20T02:00:22.463Z,9.358543
2022-11-20T02:01:22.498Z,9.358560
2022-11-20T02:02:22.443Z,9.358713
2022-11-20T02:03:22.413Z,9.358672
2022-11-20T02:04:22.405Z,9.358570
2022-11-20T02:05:23.389Z,9.358521
2022-11-20T02:06:22.403Z,9.358513
2022-11-20T02:07:22.413Z,9.358495
2022-11-20T02:08:22.375Z,9.358530
2022-11-20T02:09:22.648Z,9.358558
2022-11-20T02:10:22.350Z,9.358567
2022-11-20T02:11:22.320Z,9.358603
2022-11-20T02:12:22.317Z,9.358582
2022-11-20T02:13:22.313Z,9.358582
2022-11-20T02:14:22.334Z,9.358558
2022-11-20T02:15:26.192Z,9.358547
2022-11-20T02:16:24.272Z,9.358505
2022-11-20T02:17:22.291Z,9.358562
2022-11-20T02:18:22.273Z,9.358632
2022-11-20T02:19:22.510Z,9.358587
2022-11-20T02:20:22.255Z,9.358580
2022-11-20T02:21:22.237Z,9.358532
2022-11-20T02:22:22.242Z,9.358517
2022-11-20T02:23:22.222Z,9.358514
2022-11-20T02:24:22.201Z,9.358560
2022-11-20T02:25:22.196Z,9.358506
2022-11-20T02:26:22.202Z,9.358521
2022-11-20T02:27:22.180Z,9.358532
2022-11-20T02:28:22.176Z,9.358597
2022-11-20T02:29:22.435Z,9.358568
2022-11-20T02:30:22.139Z,9.358581
2022-11-20T02:31:22.125Z,9.358550
2022-11-20T02:32:22.141Z,9.358537
2022-11-20T02:33:22.113Z,9.358624
2022-11-20T02:34:22.110Z,9.358614
2022-11-20T02:35:22.092Z,9.358588
2022-11-20T02:36:22.066Z,9.358598
2022-11-20T02:37:22.087Z,9.358531
2022-11-20T02:38:22.052Z,9.358549
2022-11-20T02:39:22.297Z,9.358591
2022-11-20T02:40:22.030Z,9.358626
2022-11-20T02:41:22.043Z,9.358708
2022-11-20T02:42:22.006Z,9.358677
2022-11-20T02:43:22.015Z,9.358699
2022-11-20T02:44:22.015Z,9.358559
2022-11-20T02:45:21.992Z,9.358553
2022-11-20T02:46:21.980Z,9.358526
2022-11-20T02:47:21.984Z,9.358550
2022-11-20T02:48:24.551Z,9.358567
2022-11-20T02:49:22.142Z,9.358558
2022-11-20T02:50:21.938Z,9.358550
2022-11-20T02:51:21.925Z,9.358592
2022-11-20T02:52:21.919Z,9.358577
2022-11-20T02:53:21.908Z,9.358518
2022-11-20T02:54:21.900Z,9.358513
2022-11-20T02:55:21.896Z,9.358565
2022-11-20T02:56:21.865Z,9.358595
2022-11-20T02:57:21.884Z,9.358588
2022-11-20T02:58:21.963Z,9.358616
2022-11-20T02:59:22.187Z,9.358560
2022-11-20T03:00:21.846Z,9.358561
2022-11-20T03:01:21.889Z,9.358588
2022-11-20T03:02:21.812Z,9.358513
2022-11-20T03:03:21.833Z,9.358458
2022-11-20T03:04:21.783Z,9.358500
2022-11-20T03:05:21.805Z,9.358505
2022-11-20T03:06:21.786Z,9.358556
2022-11-20T03:07:21.821Z,9.358520
2022-11-20T03:08:21.779Z,9.358479
2022-11-20T03:09:22.076Z,9.358466
2022-11-20T03:10:21.722Z,9.358469
2022-11-20T03:11:21.730Z,9.358607
2022-11-20T03:12:21.705Z,9.358678
2022-11-20T03:13:21.732Z,9.358644
2022-11-20T03:14:21.698Z,9.358673
2022-11-20T03:15:21.686Z,9.358640
2022-11-20T03:16:21.663Z,9.358665
2022-11-20T03:17:21.667Z,9.358685
2022-11-20T03:18:21.647Z,9.358569
2022-11-20T03:19:21.800Z,9.358549
2022-11-20T03:20:21.620Z,9.358509
2022-11-20T03:21:21.621Z,9.358488
2022-11-20T03:22:21.625Z,9.358472
2022-11-20T03:23:21.608Z,9.358516
2022-11-20T03:24:21.587Z,9.358523
2022-11-20T03:25:21.563Z,9.358506
2022-11-20T03:26:22.584Z,9.358491
2022-11-20T03:27:21.561Z,9.358511
2022-11-20T03:28:21.541Z,9.358578
2022-11-20T03:29:21.729Z,9.358631
2022-11-20T03:30:23.205Z,9.358478
2022-11-20T03:31:21.541Z,9.358473
2022-11-20T03:32:21.528Z,9.358482
2022-11-20T03:33:21.492Z,9.358536
2022-11-20T03:34:21.471Z,9.358537
2022-11-20T03:35:21.494Z,9.358485
2022-11-20T03:36:21.481Z,9.358492
2022-11-20T03:37:21.456Z,9.358526
2022-11-20T03:38:21.470Z,9.358485
2022-11-20T03:39:21.739Z,9.358508
2022-11-20T03:40:21.441Z,9.358533
2022-11-20T03:41:21.416Z,9.358523
2022-11-20T03:42:21.406Z,9.358531
2022-11-20T03:43:21.385Z,9.358558
2022-11-20T03:44:21.370Z,9.358544
2022-11-20T03:45:21.368Z,9.358553
2022-11-20T03:46:21.359Z,9.358571
2022-11-20T03:47:21.383Z,9.358544
2022-11-20T03:48:21.345Z,9.358493
2022-11-20T03:49:21.696Z,9.358516
2022-11-20T03:50:21.349Z,9.358527
2022-11-20T03:51:21.327Z,9.358565
2022-11-20T03:52:21.301Z,9.358541
2022-11-20T03:53:21.289Z,9.358520
2022-11-20T03:54:21.275Z,9.358495
2022-11-20T03:55:21.271Z,9.358459
2022-11-20T03:56:21.252Z,9.358442
2022-11-20T03:57:21.260Z,9.358444
2022-11-20T03:58:21.246Z,9.358429
2022-11-20T03:59:21.435Z,9.358413
2022-11-20T04:00:21.240Z,9.358416
2022-11-20T04:01:21.267Z,9.358459
2022-11-20T04:02:22.203Z,9.358480
2022-11-20T04:03:21.204Z,9.358492
2022-11-20T04:04:21.178Z,9.358469
2022-11-20T04:05:21.187Z,9.358471
2022-11-20T04:06:21.160Z,9.358489
2022-11-20T04:07:21.184Z,9.358473
2022-11-20T04:08:21.170Z,9.358500
2022-11-20T04:09:21.457Z,9.358545
2022-11-20T04:10:21.125Z,9.358607
2022-11-20T04:11:21.129Z,9.358667
2022-11-20T04:12:21.104Z,9.358579
2022-11-20T04:13:21.081Z,9.358578
2022-11-20T04:14:21.071Z,9.358634
2022-11-20T04:15:21.089Z,9.358583
2022-11-20T04:16:21.067Z,9.358551
2022-11-20T04:17:21.051Z,9.358474
2022-11-20T04:18:21.044Z,9.358499
2022-11-20T04:19:21.266Z,9.358451
2022-11-20T04:20:21.042Z,9.358342
2022-11-20T04:21:21.020Z,9.358397
2022-11-20T04:22:20.997Z,9.358537
2022-11-20T04:23:24.547Z,9.358525
2022-11-20T04:24:23.005Z,9.358554
2022-11-20T04:25:20.979Z,9.358609
2022-11-20T04:26:20.974Z,9.358686
2022-11-20T04:27:20.961Z,9.358701
2022-11-20T04:28:20.935Z,9.358660
2022-11-20T04:29:21.315Z,9.358520
2022-11-20T04:30:20.916Z,9.358574
2022-11-20T04:31:20.922Z,9.358650
2022-11-20T04:32:20.889Z,9.358676
2022-11-20T04:33:20.893Z,9.358574
2022-11-20T04:34:20.871Z,9.358563
2022-11-20T04:35:20.869Z,9.358541
2022-11-20T04:36:20.862Z,9.358627
2022-11-20T04:37:20.898Z,9.358645
2022-11-20T04:38:20.861Z,9.358692
2022-11-20T04:39:21.142Z,9.358567
2022-11-20T04:40:20.797Z,9.358592
2022-11-20T04:41:20.813Z,9.358572
2022-11-20T04:42:20.796Z,9.358588
2022-11-20T04:43:20.804Z,9.358565
2022-11-20T04:44:20.776Z,9.358647
2022-11-20T04:45:20.764Z,9.358683
2022-11-20T04:46:20.745Z,9.358646
2022-11-20T04:47:20.776Z,9.358645
2022-11-20T04:48:20.758Z,9.358685
2022-11-20T04:49:21.070Z,9.358689
2022-11-20T04:50:20.707Z,9.358644
2022-11-20T04:51:20.710Z,9.358594
2022-11-20T04:52:20.681Z,9.358555
2022-11-20T04:53:20.677Z,9.358574
2022-11-20T04:54:20.682Z,9.358561
2022-11-20T04:55:20.649Z,9.358603
2022-11-20T04:56:20.646Z,9.358619
2022-11-20T04:57:20.647Z,9.358624
2022-11-20T04:58:20.628Z,9.358617
2022-11-20T04:59:20.845Z,9.358665
2022-11-20T05:00:20.614Z,9.358619
2022-11-20T05:01:20.655Z,9.358550
2022-11-20T05:02:20.579Z,9.358446
2022-11-20T05:03:20.596Z,9.358496
2022-11-20T05:04:20.559Z,9.358492
2022-11-20T05:05:20.545Z,9.358500
2022-11-20T05:06:20.550Z,9.358522
2022-11-20T05:07:20.638Z,9.358615
2022-11-20T05:08:20.550Z,9.358605
2022-11-20T05:09:20.946Z,9.358574
2022-11-20T05:10:53.552Z,9.358512
2022-11-20T05:11:20.521Z,9.358497
2022-11-20T05:12:20.493Z,9.358510
2022-11-20T05:13:20.477Z,9.358502
2022-11-20T05:14:20.484Z,9.358554
2022-11-20T05:15:20.466Z,9.358552
2022-11-20T05:16:20.444Z,9.358583
2022-11-20T05:17:20.423Z,9.358615
2022-11-20T05:18:20.446Z,9.358625
2022-11-20T05:19:20.618Z,9.358628
2022-11-20T05:20:20.393Z,9.358625
2022-11-20T05:21:20.423Z,9.358579
2022-11-20T05:22:20.387Z,9.358588
2022-11-20T05:23:20.377Z,9.358657
2022-11-20T05:24:20.387Z,9.358588
2022-11-20T05:25:20.373Z,9.358586
2022-11-20T05:26:20.338Z,9.358538
2022-11-20T05:27:20.326Z,9.358588
2022-11-20T05:28:20.340Z,9.358612
2022-11-20T05:29:20.644Z,9.358612
2022-11-20T05:30:20.329Z,9.358589
2022-11-20T05:31:26.322Z,9.358489
2022-11-20T05:32:22.295Z,9.358437
2022-11-20T05:33:20.268Z,9.358459
2022-11-20T05:34:20.281Z,9.358447
2022-11-20T05:35:20.269Z,9.358560
2022-11-20T05:36:20.236Z,9.358547
2022-11-20T05:37:20.223Z,9.358537
2022-11-20T05:38:20.240Z,9.358567
2022-11-20T05:39:20.520Z,9.358541
2022-11-20T05:40:20.186Z,9.358512
2022-11-20T05:41:20.206Z,9.358619
2022-11-20T05:42:20.193Z,9.358525
2022-11-20T05:43:20.182Z,9.358587
2022-11-20T05:44:20.152Z,9.358515
2022-11-20T05:45:20.173Z,9.358451
2022-11-20T05:46:24.776Z,9.358546
2022-11-20T05:47:22.123Z,9.358487
2022-11-20T05:48:20.140Z,9.358425
2022-11-20T05:49:20.420Z,9.358443
2022-11-20T05:50:20.101Z,9.358446
2022-11-20T05:51:20.100Z,9.358502
2022-11-20T05:52:20.085Z,9.358531
2022-11-20T05:53:20.044Z,9.358484
2022-11-20T05:54:20.088Z,9.358515
2022-11-20T05:55:20.035Z,9.358499
2022-11-20T05:56:21.030Z,9.358411
2022-11-20T05:57:20.031Z,9.358414
2022-11-20T05:58:20.027Z,9.358428
2022-11-20T05:59:20.376Z,9.358427
2022-11-20T06:00:19.988Z,9.358450
2022-11-20T06:01:20.019Z,9.358534
2022-11-20T06:02:20.016Z,9.358529
2022-11-20T06:03:19.987Z,9.358545
2022-11-20T06:04:19.961Z,9.358514
2022-11-20T06:05:19.940Z,9.358526
2022-11-20T06:06:19.959Z,9.358516
2022-11-20T06:07:19.966Z,9.358475
2022-11-20T06:08:19.926Z,9.358426
2022-11-20T06:09:21.274Z,9.358459
2022-11-20T06:10:19.880Z,9.358516
2022-11-20T06:11:19.897Z,9.358576
2022-11-20T06:12:19.883Z,9.358529
2022-11-20T06:13:19.870Z,9.358488
2022-11-20T06:14:19.820Z,9.358499
2022-11-20T06:15:19.823Z,9.358487
2022-11-20T06:16:19.880Z,9.358472
2022-11-20T06:17:19.786Z,9.358474
2022-11-20T06:18:19.818Z,9.358435
2022-11-20T06:19:20.231Z,9.358401
2022-11-20T06:20:19.757Z,9.358459
2022-11-20T06:21:19.775Z,9.358438
2022-11-20T06:22:19.767Z,9.358450
2022-11-20T06:23:19.774Z,9.358453
2022-11-20T06:24:19.720Z,9.358495
2022-11-20T06:25:19.742Z,9.358484
2022-11-20T06:26:19.741Z,9.358516
2022-11-20T06:27:19.695Z,9.358543
2022-11-20T06:28:19.717Z,9.358572
2022-11-20T06:29:20.067Z,9.358517
2022-11-20T06:30:19.650Z,9.358489
2022-11-20T06:31:19.667Z,9.358547
2022-11-20T06:32:19.670Z,9.358584
2022-11-20T06:33:19.642Z,9.358577
2022-11-20T06:34:19.651Z,9.358562
2022-11-20T06:35:19.638Z,9.358548
2022-11-20T06:36:19.589Z,9.358603
2022-11-20T06:37:19.598Z,9.358584
2022-11-20T06:38:19.644Z,9.358562
2022-11-20T06:39:20.020Z,9.358570
2022-11-20T06:40:19.561Z,9.358533
2022-11-20T06:41:19.602Z,9.358521
2022-11-20T06:42:19.574Z,9.358551
2022-11-20T06:43:19.553Z,9.358522
2022-11-20T06:44:19.520Z,9.358569
2022-11-20T06:45:19.543Z,9.358585
2022-11-20T06:46:19.524Z,9.358504
2022-11-20T06:47:19.519Z,9.358497
2022-11-20T06:48:19.503Z,9.358504
2022-11-20T06:49:19.884Z,9.358520
2022-11-20T06:50:19.439Z,9.358468
2022-11-20T06:51:19.471Z,9.358454
2022-11-20T06:52:19.460Z,9.358493
2022-11-20T06:53:19.459Z,9.358447
2022-11-20T06:54:19.420Z,9.358429
2022-11-20T06:55:19.405Z,9.358488
2022-11-20T06:56:19.414Z,9.358493
2022-11-20T06:57:19.380Z,9.358482
2022-11-20T06:58:19.400Z,9.358479
2022-11-20T06:59:19.630Z,9.358532
2022-11-20T07:00:19.347Z,9.358535
2022-11-20T07:01:19.462Z,9.358508
2022-11-20T07:02:19.361Z,9.358474
2022-11-20T07:03:19.336Z,9.358444
2022-11-20T07:04:19.313Z,9.358422
2022-11-20T07:05:19.326Z,9.358478
2022-11-20T07:06:19.287Z,9.358471
2022-11-20T07:07:19.352Z,9.358498
2022-11-20T07:08:19.302Z,9.358491
2022-11-20T07:09:19.270Z,9.358480
2022-11-20T07:10:19.271Z,9.358496
2022-11-20T07:11:19.248Z,9.358492
2022-11-20T07:12:19.245Z,9.358531
2022-11-20T07:13:19.223Z,9.358529
2022-11-20T07:14:19.219Z,9.358541
2022-11-20T07:15:19.196Z,9.358527
2022-11-20T07:16:19.222Z,9.358431
2022-11-20T07:17:19.213Z,9.358459
2022-11-20T07:18:19.145Z,9.358540
2022-11-20T07:19:19.347Z,9.358561
2022-11-20T07:20:19.175Z,9.358588
2022-11-20T07:21:19.115Z,9.358583
2022-11-20T07:22:19.155Z,9.358649
2022-11-20T07:23:19.129Z,9.358645
2022-11-20T07:24:19.099Z,9.358656
2022-11-20T07:25:19.094Z,9.358653
2022-11-20T07:26:19.099Z,9.358608
2022-11-20T07:27:19.077Z,9.358547
2022-11-20T07:28:19.045Z,9.358520
2022-11-20T07:29:19.352Z,9.358558
2022-11-20T07:30:19.021Z,9.358602
2022-11-20T07:31:19.858Z,9.358574
2022-11-20T07:32:20.045Z,9.358530
2022-11-20T07:33:19.034Z,9.358503
2022-11-20T07:34:18.994Z,9.358496
2022-11-20T07:35:18.984Z,9.358471
2022-11-20T07:36:18.988Z,9.358567
2022-11-20T07:37:18.971Z,9.358577
2022-11-20T07:38:18.986Z,9.358580
2022-11-20T07:39:19.041Z,9.358590
2022-11-20T07:40:18.945Z,9.358564
2022-11-20T07:41:18.921Z,9.358537
2022-11-20T07:42:18.943Z,9.358471
2022-11-20T07:43:18.940Z,9.358539
2022-11-20T07:44:18.899Z,9.358583
2022-11-20T07:45:18.888Z,9.358627
2022-11-20T07:46:18.897Z,9.358618
2022-11-20T07:47:18.856Z,9.358624
2022-11-20T07:48:18.843Z,9.358579
2022-11-20T07:49:18.912Z,9.358634
2022-11-20T07:50:18.851Z,9.358680
2022-11-20T07:51:18.825Z,9.358564
2022-11-20T07:52:18.780Z,9.358532
2022-11-20T07:53:18.814Z,9.358488
2022-11-20T07:54:18.773Z,9.358506
2022-11-20T07:55:18.781Z,9.358551
2022-11-20T07:56:18.775Z,9.358541
2022-11-20T07:57:18.770Z,9.358551
2022-11-20T07:58:18.732Z,9.358563
2022-11-20T07:59:18.916Z,9.358568
2022-11-20T08:00:18.743Z,9.358504
2022-11-20T08:01:18.732Z,9.358501
2022-11-20T08:02:18.708Z,9.358562
2022-11-20T08:03:24.335Z,9.358599
2022-11-20T08:04:20.719Z,9.358550
2022-11-20T08:05:18.675Z,9.358522
2022-11-20T08:06:18.672Z,9.358539
2022-11-20T08:07:18.693Z,9.358508
2022-11-20T08:08:18.661Z,9.358577
2022-11-20T08:09:18.926Z,9.358413
2022-11-20T08:10:18.604Z,9.358509
2022-11-20T08:11:18.593Z,9.358525
2022-11-20T08:12:18.597Z,9.358515
2022-11-20T08:13:18.595Z,9.358632
2022-11-20T08:14:18.572Z,9.358645
2022-11-20T08:15:18.586Z,9.358474
2022-11-20T08:16:18.563Z,9.358521
2022-11-20T08:17:18.526Z,9.358515
2022-11-20T08:18:33.892Z,9.358509
2022-11-20T08:19:20.970Z,9.358489
2022-11-20T08:20:18.530Z,9.358496
2022-11-20T08:21:18.503Z,9.358549
2022-11-20T08:22:18.465Z,9.358617
2022-11-20T08:23:18.465Z,9.358540
2022-11-20T08:24:18.500Z,9.358481
2022-11-20T08:25:18.453Z,9.358562
2022-11-20T08:26:18.470Z,9.358521
2022-11-20T08:27:18.423Z,9.358455
2022-11-20T08:28:21.618Z,9.358465
2022-11-20T08:29:19.522Z,9.358485
2022-11-20T08:30:18.409Z,9.358455
2022-11-20T08:31:18.404Z,9.358471
2022-11-20T08:32:18.362Z,9.358533
2022-11-20T08:33:18.490Z,9.358516
2022-11-20T08:34:19.330Z,9.358475
2022-11-20T08:35:19.365Z,9.358529
2022-11-20T08:36:18.345Z,9.358569
2022-11-20T08:37:18.341Z,9.358607
2022-11-20T08:38:18.337Z,9.358584
2022-11-20T08:39:18.362Z,9.358726
2022-11-20T08:40:19.781Z,9.358721
2022-11-20T08:41:19.282Z,9.358727
2022-11-20T08:42:18.289Z,9.358645
2022-11-20T08:43:18.255Z,9.358688
2022-11-20T08:44:18.214Z,9.358599
2022-11-20T08:45:18.285Z,9.358553
2022-11-20T08:46:18.232Z,9.358555
2022-11-20T08:47:18.214Z,9.358629
2022-11-20T08:48:18.202Z,9.358521
2022-11-20T08:49:18.178Z,9.358528
2022-11-20T08:50:18.164Z,9.358501
2022-11-20T08:51:18.164Z,9.358545
2022-11-20T08:52:18.166Z,9.358709
2022-11-20T08:53:18.146Z,9.358556
2022-11-20T08:54:18.133Z,9.358511
2022-11-20T08:55:18.103Z,9.358551
2022-11-20T08:56:18.116Z,9.358551
2022-11-20T08:57:18.087Z,9.358592
2022-11-20T08:58:18.100Z,9.358507
2022-11-20T08:59:31.636Z,9.358444
2022-11-20T09:00:20.076Z,9.358582
2022-11-20T09:01:18.101Z,9.358582
2022-11-20T09:02:18.058Z,9.358597
2022-11-20T09:03:18.035Z,9.358575
2022-11-20T09:04:18.024Z,9.358508
2022-11-20T09:05:18.026Z,9.358588
2022-11-20T09:06:18.001Z,9.358584
2022-11-20T09:07:18.016Z,9.358537
2022-11-20T09:08:18.006Z,9.358541
2022-11-20T09:09:17.994Z,9.358512
2022-11-20T09:10:25.371Z,9.358545
2022-11-20T09:11:19.967Z,9.358578
2022-11-20T09:12:17.945Z,9.358567
2022-11-20T09:13:17.915Z,9.358603
2022-11-20T09:14:17.943Z,9.358489
2022-11-20T09:15:17.931Z,9.358489
2022-11-20T09:16:17.919Z,9.358601
2022-11-20T09:17:17.917Z,9.358625
2022-11-20T09:18:17.883Z,9.358555
2022-11-20T09:19:40.748Z,9.358509
2022-11-20T09:20:19.841Z,9.358529
2022-11-20T09:21:17.901Z,9.358530
2022-11-20T09:22:17.833Z,9.358521
2022-11-20T09:23:17.819Z,9.358542
2022-11-20T09:24:17.846Z,9.358559
2022-11-20T09:25:17.799Z,9.358545
2022-11-20T09:26:17.800Z,9.358545
2022-11-20T09:27:17.775Z,9.358574
2022-11-20T09:28:17.788Z,9.358578
2022-11-20T09:29:17.799Z,9.358519
2022-11-20T09:30:17.742Z,9.358530
2022-11-20T09:31:17.864Z,9.358565
2022-11-20T09:32:17.732Z,9.358627
2022-11-20T09:33:17.746Z,9.358589
2022-11-20T09:34:17.684Z,9.358615
2022-11-20T09:35:17.678Z,9.358572
2022-11-20T09:36:17.699Z,9.358594
2022-11-20T09:37:17.644Z,9.358593
2022-11-20T09:38:18.029Z,9.358575
2022-11-20T09:39:17.695Z,9.358575
2022-11-20T09:40:17.634Z,9.358548
2022-11-20T09:41:17.673Z,9.358575
2022-11-20T09:42:17.635Z,9.358567
2022-11-20T09:43:17.607Z,9.358566
2022-11-20T09:44:17.576Z,9.358569
2022-11-20T09:45:18.650Z,9.358585
2022-11-20T09:46:17.565Z,9.358599
2022-11-20T09:47:17.559Z,9.358597
2022-11-20T09:48:17.576Z,9.358587
2022-11-20T09:49:17.548Z,9.358607
2022-11-20T09:50:17.511Z,9.358573
2022-11-20T09:51:17.541Z,9.358541
2022-11-20T09:52:17.541Z,9.358468
2022-11-20T09:53:17.513Z,9.358534
2022-11-20T09:54:17.524Z,9.358521
2022-11-20T09:55:17.506Z,9.358553
2022-11-20T09:56:19.757Z,9.358560
2022-11-20T09:57:18.485Z,9.358550
2022-11-20T09:58:17.469Z,9.358579
2022-11-20T09:59:17.428Z,9.358623
2022-11-20T10:00:17.443Z,9.358544
2022-11-20T10:01:17.545Z,9.358499
2022-11-20T10:02:17.471Z,9.358485
2022-11-20T10:03:17.450Z,9.358489
2022-11-20T10:04:17.380Z,9.358520
2022-11-20T10:05:17.375Z,9.358581
2022-11-20T10:06:17.411Z,9.358579
2022-11-20T10:07:31.715Z,9.358554
2022-11-20T10:08:19.379Z,9.358563
2022-11-20T10:09:17.382Z,9.358570
2022-11-20T10:10:17.420Z,9.358614
2022-11-20T10:11:17.308Z,9.358615
2022-11-20T10:12:17.331Z,9.358634
2022-11-20T10:13:17.296Z,9.358637
2022-11-20T10:14:18.250Z,9.358610
2022-11-20T10:15:17.279Z,9.358596
2022-11-20T10:16:17.280Z,9.358590
2022-11-20T10:17:17.233Z,9.358563
2022-11-20T10:18:17.236Z,9.358525
2022-11-20T10:19:17.227Z,9.358508
2022-11-20T10:20:17.271Z,9.358492
2022-11-20T10:21:17.212Z,9.358478
2022-11-20T10:22:17.205Z,9.358504
2022-11-20T10:23:20.246Z,9.358608
2022-11-20T10:24:18.185Z,9.358769
2022-11-20T10:25:17.161Z,9.358643
2022-11-20T10:26:17.159Z,9.358582
2022-11-20T10:27:17.150Z,9.358554
2022-11-20T10:28:17.109Z,9.358534
2022-11-20T10:29:17.119Z,9.358598
2022-11-20T10:30:17.193Z,9.358651
2022-11-20T10:31:17.091Z,9.358629
2022-11-20T10:32:17.090Z,9.358666
2022-11-20T10:33:17.133Z,9.358626
2022-11-20T10:34:22.436Z,9.358590
2022-11-20T10:35:19.061Z,9.358597
2022-11-20T10:36:17.085Z,9.358629
2022-11-20T10:37:17.022Z,9.358658
2022-11-20T10:38:17.023Z,9.358610
2022-11-20T10:39:18.033Z,9.358601
2022-11-20T10:40:17.111Z,9.358551
2022-11-20T10:41:16.970Z,9.358522
2022-11-20T10:42:16.997Z,9.358580
2022-11-20T10:43:17.009Z,9.358610
2022-11-20T10:44:16.989Z,9.358662
2022-11-20T10:45:16.979Z,9.358671
2022-11-20T10:46:16.960Z,9.358619
2022-11-20T10:47:16.949Z,9.358621
2022-11-20T10:48:16.986Z,9.358611
2022-11-20T10:49:16.937Z,9.358616
2022-11-20T10:50:22.257Z,9.358588
2022-11-20T10:51:18.910Z,9.358636
2022-11-20T10:52:16.905Z,9.358622
2022-11-20T10:53:16.943Z,9.358672
2022-11-20T10:54:16.831Z,9.358621
2022-11-20T10:55:16.874Z,9.358679
2022-11-20T10:56:16.895Z,9.358685
2022-11-20T10:57:16.836Z,9.358560
2022-11-20T10:58:16.803Z,9.358676
2022-11-20T10:59:16.787Z,9.358626
2022-11-20T11:00:16.834Z,9.358671
2022-11-20T11:01:17.890Z,9.358644
2022-11-20T11:02:16.745Z,9.358637
2022-11-20T11:03:16.754Z,9.358611
2022-11-20T11:04:16.819Z,9.358549
2022-11-20T11:05:16.724Z,9.358531
2022-11-20T11:06:16.760Z,9.358551
2022-11-20T11:07:16.736Z,9.358611
2022-11-20T11:08:16.722Z,9.358738
2022-11-20T11:09:16.685Z,9.358680
2022-11-20T11:10:16.695Z,9.358664
2022-11-20T11:11:48.568Z,9.358730
2022-11-20T11:12:16.681Z,9.358692
2022-11-20T11:13:16.652Z,9.358720
2022-11-20T11:14:16.651Z,9.358665
2022-11-20T11:15:16.632Z,9.358662
2022-11-20T11:16:16.623Z,9.358702
2022-11-20T11:17:16.588Z,9.358624
2022-11-20T11:18:16.610Z,9.358549
2022-11-20T11:19:16.788Z,9.358616
2022-11-20T11:20:16.569Z,9.358653
2022-11-20T11:21:16.555Z,9.358618
2022-11-20T11:22:16.533Z,9.358606
2022-11-20T11:23:16.558Z,9.358646
2022-11-20T11:24:40.497Z,9.358715
2022-11-20T11:25:18.515Z,9.358662
2022-11-20T11:26:16.540Z,9.358572
2022-11-20T11:27:17.666Z,9.358540
2022-11-20T11:28:17.482Z,9.358549
2022-11-20T11:29:16.473Z,9.358619
2022-11-20T11:30:16.458Z,9.358562
2022-11-20T11:31:16.463Z,9.358561
2022-11-20T11:32:16.450Z,9.358534
2022-11-20T11:33:16.436Z,9.358556
2022-11-20T11:34:16.423Z,9.358521
2022-11-20T11:35:16.437Z,9.358603
2022-11-20T11:36:16.421Z,9.358607
2022-11-20T11:37:16.384Z,9.358592
2022-11-20T11:38:16.398Z,9.358587
2022-11-20T11:39:16.392Z,9.358542
2022-11-20T11:40:23.828Z,9.358540
2022-11-20T11:41:18.437Z,9.358599
2022-11-20T11:42:16.331Z,9.358593
2022-11-20T11:43:16.342Z,9.358591
2022-11-20T11:44:16.341Z,9.358534